createdAt,value
2022-10-01T00:00:00.644Z,9.57
2022-10-01T00:02:38.170Z,9.58
2022-10-01T00:05:13.486Z,9.58
2022-10-01T00:07:46.972Z,9.59
2022-10-01T00:10:19.653Z,9.60
2022-10-01T00:12:52.136Z,9.58
2022-10-01T00:15:28.807Z,9.56
2022-10-01T00:18:02.022Z,9.54
2022-10-01T00:20:35.210Z,9.54
2022-10-01T00:23:07.748Z,9.53
2022-10-01T00:25:41.373Z,9.53
2022-10-01T00:28:13.894Z,9.52
2022-10-01T00:30:47.996Z,9.54
2022-10-01T00:33:20.468Z,9.56
2022-10-01T00:35:56.948Z,9.58
2022-10-01T00:38:30.938Z,9.60
2022-10-01T00:41:05.028Z,9.59
2022-10-01T00:43:46.360Z,9.63
2022-10-01T00:46:29.531Z,9.63
2022-10-01T00:49:21.381Z,9.65
2022-10-01T00:52:05.825Z,9.68
2022-10-01T00:54:49.316Z,9.67
2022-10-01T00:57:26.446Z,9.69
2022-10-01T01:00:05.979Z,9.69
2022-10-01T01:02:39.625Z,9.70
2022-10-01T01:05:13.453Z,9.69
2022-10-01T01:07:50.230Z,9.65
2022-10-01T01:10:54.124Z,9.64
2022-10-01T01:13:53.889Z,9.62
2022-10-01T01:16:57.856Z,9.58
2022-10-01T01:20:06.097Z,9.55
2022-10-01T01:22:53.385Z,9.50
2022-10-01T01:25:42.287Z,9.46
2022-10-01T01:28:25.685Z,9.45
2022-10-01T01:31:07.442Z,9.46
2022-10-01T01:33:46.099Z,9.46
2022-10-01T01:36:28.607Z,9.43
2022-10-01T01:39:08.249Z,9.42
2022-10-01T01:41:51.544Z,9.39
2022-10-01T01:44:31.557Z,9.38
2022-10-01T01:47:10.509Z,9.38
2022-10-01T01:49:43.767Z,9.37
2022-10-01T01:52:17.367Z,9.37
2022-10-01T01:54:51.560Z,9.38
2022-10-01T01:57:24.271Z,9.37
2022-10-01T01:59:56.760Z,9.38
2022-10-01T02:02:35.882Z,9.39
2022-10-01T02:05:15.936Z,9.37
2022-10-01T02:08:16.399Z,9.36
2022-10-01T02:11:13.466Z,9.35
2022-10-01T02:14:28.099Z,9.37
2022-10-01T02:17:13.144Z,9.37
2022-10-01T02:20:11.985Z,9.35
2022-10-01T02:22:54.843Z,9.36
2022-10-01T02:25:37.518Z,9.38
2022-10-01T02:28:18.743Z,9.37
2022-10-01T02:30:58.346Z,9.37
2022-10-01T02:33:36.473Z,9.43
2022-10-01T02:36:13.215Z,9.46
2022-10-01T02:38:50.661Z,9.45
2022-10-01T02:41:33.806Z,9.44
2022-10-01T02:44:18.433Z,9.48
2022-10-01T02:47:23.793Z,9.49
2022-10-01T02:49:56.293Z,9.50
2022-10-01T02:52:58.664Z,9.51
2022-10-01T02:55:37.804Z,9.53
2022-10-01T02:58:11.519Z,9.55
2022-10-01T03:00:44.077Z,9.58
2022-10-01T03:03:16.612Z,9.59
2022-10-01T03:05:49.124Z,9.61
2022-10-01T03:08:21.608Z,9.64
2022-10-01T03:10:54.074Z,9.66
2022-10-01T03:13:27.043Z,9.65
2022-10-01T03:15:59.773Z,9.67
2022-10-01T03:18:32.242Z,9.67
2022-10-01T03:21:04.771Z,9.71
2022-10-01T03:23:37.335Z,9.69
2022-10-01T03:26:09.819Z,9.71
2022-10-01T03:28:42.301Z,9.73
2022-10-01T03:31:14.880Z,9.74
2022-10-01T03:33:47.369Z,9.78
2022-10-01T03:36:19.840Z,9.80
2022-10-01T03:38:52.450Z,9.81
2022-10-01T03:41:24.974Z,9.84
2022-10-01T03:44:00.509Z,9.87
2022-10-01T03:46:33.245Z,9.91
2022-10-01T03:49:05.985Z,9.92
2022-10-01T03:51:38.618Z,9.96
2022-10-01T03:54:11.179Z,9.96
2022-10-01T03:56:43.656Z,9.98
2022-10-01T03:59:16.165Z,10.02
2022-10-01T04:01:48.852Z,10.05
2022-10-01T04:04:21.521Z,10.10
2022-10-01T04:06:53.997Z,10.13
2022-10-01T04:09:26.522Z,10.15
2022-10-01T04:11:59.753Z,10.18
2022-10-01T04:14:32.277Z,10.19
2022-10-01T04:17:04.757Z,10.22
2022-10-01T04:19:37.218Z,10.27
2022-10-01T04:22:09.681Z,10.30
2022-10-01T04:24:42.182Z,10.29
2022-10-01T04:27:15.320Z,10.32
2022-10-01T04:29:47.793Z,10.34
2022-10-01T04:32:21.497Z,10.37
2022-10-01T04:34:54.042Z,10.41
2022-10-01T04:37:29.378Z,10.43
2022-10-01T04:40:02.040Z,10.45
2022-10-01T04:42:34.489Z,10.46
2022-10-01T04:45:08.826Z,10.50
2022-10-01T04:47:52.790Z,10.53
2022-10-01T04:50:27.318Z,10.54
2022-10-01T04:53:00.113Z,10.57
2022-10-01T04:55:32.620Z,10.59
2022-10-01T04:58:05.117Z,10.60
2022-10-01T05:00:37.736Z,10.63
2022-10-01T05:03:10.785Z,10.66
2022-10-01T05:05:43.282Z,10.67
2022-10-01T05:08:15.876Z,10.72
2022-10-01T05:10:48.411Z,10.73
2022-10-01T05:13:20.874Z,10.74
2022-10-01T05:15:53.689Z,10.75
2022-10-01T05:18:26.427Z,10.78
2022-10-01T05:20:59.169Z,10.76
2022-10-01T05:23:32.779Z,10.80
2022-10-01T05:26:05.742Z,10.79
2022-10-01T05:28:44.649Z,10.82
2022-10-01T05:31:18.663Z,10.82
2022-10-01T05:33:51.232Z,10.85
2022-10-01T05:36:23.714Z,10.87
2022-10-01T05:38:56.232Z,10.87
2022-10-01T05:41:28.697Z,10.88
2022-10-01T05:44:02.926Z,10.87
2022-10-01T05:46:35.426Z,10.89
2022-10-01T05:49:08.287Z,10.90
2022-10-01T05:51:40.741Z,10.92
2022-10-01T05:54:13.798Z,10.90
2022-10-01T05:56:46.265Z,10.93
2022-10-01T05:59:18.781Z,10.97
2022-10-01T06:01:51.419Z,10.98
2022-10-01T06:04:24.205Z,10.99
2022-10-01T06:06:56.725Z,10.99
2022-10-01T06:09:29.204Z,11.01
2022-10-01T06:12:02.587Z,11.01
2022-10-01T06:14:35.316Z,11.02
2022-10-01T06:17:07.820Z,10.99
2022-10-01T06:19:40.305Z,10.94
2022-10-01T06:22:12.779Z,10.88
2022-10-01T06:24:45.284Z,10.85
2022-10-01T06:27:18.520Z,10.86
2022-10-01T06:29:51.007Z,10.89
2022-10-01T06:32:23.512Z,10.93
2022-10-01T06:34:55.984Z,10.95
2022-10-01T06:37:28.698Z,11.00
2022-10-01T06:40:01.309Z,11.04
2022-10-01T06:42:33.804Z,11.09
2022-10-01T06:45:06.873Z,11.17
2022-10-01T06:47:39.370Z,11.26
2022-10-01T06:50:11.854Z,11.39
2022-10-01T06:52:50.126Z,11.49
2022-10-01T06:55:28.971Z,11.60
2022-10-01T06:58:17.588Z,11.73
2022-10-01T07:00:50.861Z,11.82
2022-10-01T07:03:23.394Z,11.91
2022-10-01T07:06:03.284Z,11.95
2022-10-01T07:08:35.842Z,11.96
2022-10-01T07:11:08.318Z,11.96
2022-10-01T07:13:40.761Z,11.97
2022-10-01T07:16:13.290Z,12.01
2022-10-01T07:18:45.887Z,12.08
2022-10-01T07:21:18.407Z,12.20
2022-10-01T07:23:51.070Z,12.34
2022-10-01T07:26:23.577Z,12.41
2022-10-01T07:28:56.097Z,12.51
2022-10-01T07:31:28.752Z,12.57
2022-10-01T07:34:01.293Z,12.60
2022-10-01T07:36:34.031Z,12.57
2022-10-01T07:39:06.503Z,12.49
2022-10-01T07:41:38.991Z,12.44
2022-10-01T07:44:14.357Z,12.36
2022-10-01T07:46:47.190Z,12.30
2022-10-01T07:49:20.375Z,12.28
2022-10-01T07:51:54.824Z,12.26
2022-10-01T07:54:27.432Z,12.26
2022-10-01T07:56:59.945Z,12.31
2022-10-01T07:59:33.146Z,12.31
2022-10-01T08:02:06.116Z,12.31
2022-10-01T08:04:57.557Z,12.35
2022-10-01T08:07:32.844Z,12.41
2022-10-01T08:10:05.877Z,12.42
2022-10-01T08:12:38.594Z,12.50
2022-10-01T08:15:15.171Z,12.62
2022-10-01T08:17:47.654Z,12.73
2022-10-01T08:20:21.372Z,12.81
2022-10-01T08:22:53.963Z,12.86
2022-10-01T08:25:26.412Z,12.89
2022-10-01T08:28:00.232Z,12.86
2022-10-01T08:30:33.182Z,12.92
2022-10-01T08:33:06.642Z,13.02
2022-10-01T08:35:40.866Z,13.01
2022-10-01T08:38:14.446Z,13.07
2022-10-01T08:40:51.000Z,13.09
2022-10-01T08:43:38.709Z,13.15
2022-10-01T08:46:18.244Z,13.16
2022-10-01T08:49:08.141Z,13.25
2022-10-01T08:52:06.352Z,13.29
2022-10-01T08:54:59.138Z,13.25
2022-10-01T08:57:41.998Z,13.29
2022-10-01T09:00:17.569Z,13.18
2022-10-01T09:02:52.893Z,13.11
2022-10-01T09:05:55.640Z,13.24
2022-10-01T09:08:56.977Z,13.28
2022-10-01T09:11:59.050Z,13.40
2022-10-01T09:15:01.727Z,13.57
2022-10-01T09:17:56.320Z,13.71
2022-10-01T09:20:58.297Z,13.82
2022-10-01T09:23:42.847Z,13.90
2022-10-01T09:26:15.391Z,13.91
2022-10-01T09:28:53.831Z,13.97
2022-10-01T09:31:42.736Z,14.15
2022-10-01T09:34:43.271Z,14.21
2022-10-01T09:37:49.477Z,14.43
2022-10-01T09:40:38.475Z,14.47
2022-10-01T09:43:12.968Z,14.51
2022-10-01T09:45:47.191Z,14.34
2022-10-01T09:48:38.281Z,14.24
2022-10-01T09:51:18.285Z,14.14
2022-10-01T09:54:13.009Z,14.02
2022-10-01T09:56:54.905Z,14.06
2022-10-01T09:59:37.855Z,14.20
2022-10-01T10:02:22.838Z,14.35
2022-10-01T10:05:13.926Z,14.57
2022-10-01T10:08:00.001Z,14.67
2022-10-01T10:10:36.825Z,14.69
2022-10-01T10:13:10.084Z,14.59
2022-10-01T10:15:59.861Z,14.08
2022-10-01T10:18:35.855Z,13.80
2022-10-01T10:21:20.615Z,13.75
2022-10-01T10:24:01.153Z,13.78
2022-10-01T10:26:41.029Z,13.84
2022-10-01T10:29:34.178Z,13.96
2022-10-01T10:32:28.370Z,14.08
2022-10-01T10:35:09.967Z,14.08
2022-10-01T10:37:49.931Z,14.11
2022-10-01T10:40:29.555Z,14.24
2022-10-01T10:43:02.421Z,14.40
2022-10-01T10:45:39.758Z,14.56
2022-10-01T10:48:18.738Z,14.68
2022-10-01T10:51:01.676Z,14.87
2022-10-01T10:53:46.055Z,15.19
2022-10-01T10:56:23.064Z,15.49
2022-10-01T10:59:08.287Z,15.83
2022-10-01T11:01:43.134Z,15.87
2022-10-01T11:04:50.485Z,15.79
2022-10-01T11:07:26.768Z,15.69
2022-10-01T11:10:27.794Z,15.64
2022-10-01T11:13:53.305Z,15.68
2022-10-01T11:16:40.932Z,15.85
2022-10-01T11:19:41.534Z,16.16
2022-10-01T11:22:44.943Z,15.78
2022-10-01T11:25:43.709Z,15.54
2022-10-01T11:28:50.832Z,15.33
2022-10-01T11:32:05.136Z,15.40
2022-10-01T11:35:14.638Z,15.55
2022-10-01T11:37:59.977Z,15.63
2022-10-01T11:40:40.865Z,15.80
2022-10-01T11:43:18.509Z,15.92
2022-10-01T11:46:42.113Z,15.88
2022-10-01T11:49:26.721Z,16.06
2022-10-01T11:52:18.220Z,16.01
2022-10-01T11:55:29.493Z,16.30
2022-10-01T11:58:32.898Z,16.37
2022-10-01T12:01:28.351Z,16.44
2022-10-01T12:04:07.247Z,16.24
2022-10-01T12:06:56.060Z,16.26
2022-10-01T12:10:25.679Z,16.09
2022-10-01T12:13:07.373Z,15.94
2022-10-01T12:15:51.880Z,15.83
2022-10-01T12:18:36.218Z,15.83
2022-10-01T12:21:23.549Z,15.80
2022-10-01T12:24:14.255Z,15.92
2022-10-01T12:27:02.200Z,15.98
2022-10-01T12:29:43.590Z,16.16
2022-10-01T12:32:47.189Z,16.25
2022-10-01T12:35:57.844Z,16.16
2022-10-01T12:39:03.380Z,16.10
2022-10-01T12:42:14.981Z,15.93
2022-10-01T12:45:20.347Z,15.57
2022-10-01T12:48:25.698Z,15.42
2022-10-01T12:51:35.981Z,15.20
2022-10-01T12:54:48.521Z,15.22
2022-10-01T12:57:33.061Z,15.12
2022-10-01T13:00:27.295Z,15.22
2022-10-01T13:03:37.361Z,15.49
2022-10-01T13:06:32.152Z,15.70
2022-10-01T13:09:29.906Z,15.85
2022-10-01T13:12:32.930Z,15.88
2022-10-01T13:15:22.423Z,15.91
2022-10-01T13:18:15.620Z,16.01
2022-10-01T13:21:13.251Z,15.86
2022-10-01T13:24:12.197Z,15.96
2022-10-01T13:27:28.294Z,15.96
2022-10-01T13:30:21.562Z,16.09
2022-10-01T13:33:00.830Z,16.06
2022-10-01T13:35:39.577Z,16.16
2022-10-01T13:38:29.229Z,16.23
2022-10-01T13:41:06.231Z,16.24
2022-10-01T13:43:39.454Z,16.18
2022-10-01T13:46:12.896Z,16.11
2022-10-01T13:48:49.178Z,16.21
2022-10-01T13:51:21.830Z,16.20
2022-10-01T13:54:02.149Z,16.27
2022-10-01T13:56:38.067Z,16.23
2022-10-01T13:59:39.825Z,16.23
2022-10-01T14:02:36.978Z,16.15
2022-10-01T14:05:28.903Z,16.34
2022-10-01T14:08:25.287Z,16.41
2022-10-01T14:11:29.061Z,16.34
2022-10-01T14:14:46.409Z,16.25
2022-10-01T14:17:24.739Z,16.21
2022-10-01T14:20:00.555Z,16.14
2022-10-01T14:22:50.968Z,16.03
2022-10-01T14:25:57.573Z,15.79
2022-10-01T14:28:38.207Z,15.64
2022-10-01T14:31:35.643Z,15.61
2022-10-01T14:34:39.876Z,15.51
2022-10-01T14:37:18.325Z,15.46
2022-10-01T14:40:20.953Z,15.54
2022-10-01T14:43:15.122Z,15.58
2022-10-01T14:46:06.721Z,15.63
2022-10-01T14:48:40.349Z,15.70
2022-10-01T14:51:30.673Z,15.71
2022-10-01T14:54:03.470Z,15.79
2022-10-01T14:56:37.901Z,15.86
2022-10-01T14:59:39.585Z,15.83
2022-10-01T15:02:25.171Z,15.75
2022-10-01T15:04:58.166Z,15.62
2022-10-01T15:07:36.781Z,15.57
2022-10-01T15:10:09.560Z,15.38
2022-10-01T15:12:43.162Z,15.28
2022-10-01T15:15:26.392Z,15.20
2022-10-01T15:17:59.097Z,15.13
2022-10-01T15:20:32.042Z,15.09
2022-10-01T15:23:06.083Z,15.06
2022-10-01T15:25:38.611Z,15.09
2022-10-01T15:28:25.073Z,15.11
2022-10-01T15:31:00.971Z,15.06
2022-10-01T15:33:37.927Z,15.03
2022-10-01T15:36:18.412Z,15.04
2022-10-01T15:38:51.563Z,15.07
2022-10-01T15:41:32.281Z,15.11
2022-10-01T15:44:06.436Z,15.13
2022-10-01T15:46:39.341Z,15.13
2022-10-01T15:49:19.223Z,15.19
2022-10-01T15:52:20.077Z,15.17
2022-10-01T15:54:59.995Z,15.17
2022-10-01T15:57:33.558Z,15.11
2022-10-01T16:00:07.091Z,15.10
2022-10-01T16:02:39.823Z,15.11
2022-10-01T16:05:20.468Z,15.25
2022-10-01T16:07:58.434Z,15.39
2022-10-01T16:10:37.803Z,15.37
2022-10-01T16:13:38.683Z,15.37
2022-10-01T16:16:19.352Z,15.36
2022-10-01T16:19:19.082Z,15.36
2022-10-01T16:22:19.235Z,15.23
2022-10-01T16:25:09.269Z,15.07
2022-10-01T16:28:04.158Z,14.98
2022-10-01T16:30:36.839Z,14.93
2022-10-01T16:33:10.294Z,14.87
2022-10-01T16:35:45.488Z,14.74
2022-10-01T16:38:17.985Z,14.64
2022-10-01T16:40:53.489Z,14.62
2022-10-01T16:43:25.996Z,14.56
2022-10-01T16:45:59.251Z,14.49
2022-10-01T16:48:31.785Z,14.43
2022-10-01T16:51:04.384Z,14.38
2022-10-01T16:53:38.121Z,14.31
2022-10-01T16:56:10.877Z,14.30
2022-10-01T16:58:44.270Z,14.22
2022-10-01T17:01:16.896Z,14.08
2022-10-01T17:03:49.451Z,13.93
2022-10-01T17:06:21.977Z,13.83
2022-10-01T17:08:54.601Z,13.71
2022-10-01T17:11:29.931Z,13.57
2022-10-01T17:14:07.003Z,13.41
2022-10-01T17:16:40.155Z,13.33
2022-10-01T17:19:14.338Z,13.20
2022-10-01T17:21:47.042Z,13.12
2022-10-01T17:24:19.716Z,13.03
2022-10-01T17:26:52.492Z,12.96
2022-10-01T17:29:24.984Z,12.91
2022-10-01T17:31:57.839Z,12.85
2022-10-01T17:34:30.619Z,12.78
2022-10-01T17:37:03.380Z,12.71
2022-10-01T17:39:36.192Z,12.64
2022-10-01T17:42:11.773Z,12.57
2022-10-01T17:44:45.233Z,12.48
2022-10-01T17:47:18.209Z,12.41
2022-10-01T17:49:50.993Z,12.32
2022-10-01T17:52:23.635Z,12.24
2022-10-01T17:54:56.299Z,12.16
2022-10-01T17:57:28.818Z,12.09
2022-10-01T18:00:01.924Z,12.05
2022-10-01T18:02:42.101Z,11.98
2022-10-01T18:05:15.403Z,11.91
2022-10-01T18:07:47.914Z,11.84
2022-10-01T18:10:20.414Z,11.81
2022-10-01T18:12:53.026Z,11.75
2022-10-01T18:15:25.599Z,11.72
2022-10-01T18:19:03.600Z,11.62
2022-10-01T18:20:53.353Z,11.58
2022-10-01T18:23:31.826Z,11.52
2022-10-01T18:26:05.294Z,11.47
2022-10-01T18:28:38.118Z,11.44
2022-10-01T18:31:13.616Z,11.44
2022-10-01T18:33:57.754Z,11.42
2022-10-01T18:36:54.899Z,11.39
2022-10-01T18:39:41.004Z,11.42
2022-10-01T18:42:30.010Z,11.41
2022-10-01T18:45:14.688Z,11.38
2022-10-01T18:48:11.715Z,11.36
2022-10-01T18:51:19.281Z,11.28
2022-10-01T18:54:38.934Z,11.24
2022-10-01T18:57:42.037Z,11.21
2022-10-01T19:00:23.183Z,11.14
2022-10-01T19:03:35.885Z,11.10
2022-10-01T19:06:39.680Z,11.06
2022-10-01T19:09:44.699Z,10.97
2022-10-01T19:12:26.919Z,10.91
2022-10-01T19:15:16.036Z,10.87
2022-10-01T19:18:38.722Z,10.85
2022-10-01T19:21:29.234Z,10.78
2022-10-01T19:24:51.966Z,10.71
2022-10-01T19:27:58.345Z,10.63
2022-10-01T19:31:15.920Z,10.58
2022-10-01T19:34:25.193Z,10.55
2022-10-01T19:37:10.714Z,10.49
2022-10-01T19:39:51.475Z,10.45
2022-10-01T19:42:33.614Z,10.39
2022-10-01T19:45:38.197Z,10.33
2022-10-01T19:48:23.853Z,10.27
2022-10-01T19:51:07.953Z,10.25
2022-10-01T19:53:50.853Z,10.29
2022-10-01T19:56:30.192Z,10.33
2022-10-01T19:59:16.115Z,10.33
2022-10-01T20:02:01.466Z,10.44
2022-10-01T20:04:58.556Z,10.42
2022-10-01T20:08:07.813Z,10.49
2022-10-01T20:11:01.743Z,10.57
2022-10-01T20:14:07.674Z,10.62
2022-10-01T20:16:50.353Z,10.75
2022-10-01T20:19:38.985Z,10.77
2022-10-01T20:22:54.453Z,10.82
2022-10-01T20:25:55.995Z,10.92
2022-10-01T20:29:05.340Z,10.96
2022-10-01T20:32:09.492Z,10.92
2022-10-01T20:34:57.131Z,10.89
2022-10-01T20:37:45.210Z,10.89
2022-10-01T20:40:26.817Z,10.90
2022-10-01T20:43:13.926Z,10.87
2022-10-01T20:45:51.586Z,10.92
2022-10-01T20:48:37.205Z,10.99
2022-10-01T20:51:32.615Z,11.06
2022-10-01T20:54:16.144Z,11.11
2022-10-01T20:57:12.735Z,11.13
2022-10-01T20:59:52.483Z,11.20
2022-10-01T21:02:42.674Z,11.24
2022-10-01T21:05:27.084Z,11.26
2022-10-01T21:08:06.713Z,11.30
2022-10-01T21:10:56.224Z,11.24
2022-10-01T21:13:31.661Z,11.21
2022-10-01T21:17:00.649Z,11.19
2022-10-01T21:20:09.018Z,11.16
2022-10-01T21:23:03.154Z,11.13
2022-10-01T21:26:09.683Z,11.14
2022-10-01T21:29:22.050Z,11.14
2022-10-01T21:32:08.162Z,11.13
2022-10-01T21:34:40.567Z,11.13
2022-10-01T21:37:23.035Z,11.14
2022-10-01T21:40:32.914Z,11.17
2022-10-01T21:43:40.209Z,11.20
2022-10-01T21:46:40.062Z,11.22
2022-10-01T21:49:43.463Z,11.19
2022-10-01T21:52:31.092Z,11.18
2022-10-01T21:55:25.774Z,11.17
2022-10-01T21:58:34.427Z,11.14
2022-10-01T22:01:48.867Z,11.16
2022-10-01T22:04:39.310Z,11.18
2022-10-01T22:07:36.853Z,11.14
2022-10-01T22:10:20.204Z,11.11
2022-10-01T22:13:00.349Z,11.08
2022-10-01T22:15:40.475Z,11.07
2022-10-01T22:18:33.920Z,11.01
2022-10-01T22:21:17.385Z,11.02
2022-10-01T22:24:01.889Z,11.00
2022-10-01T22:26:42.041Z,10.99
2022-10-01T22:29:42.310Z,10.94
2022-10-01T22:32:20.860Z,10.95
2022-10-01T22:35:03.101Z,10.92
2022-10-01T22:37:57.086Z,10.86
2022-10-01T22:40:39.582Z,10.87
2022-10-01T22:43:14.321Z,10.85
2022-10-01T22:46:27.633Z,10.83
2022-10-01T22:49:11.846Z,10.79
2022-10-01T22:52:48.243Z,10.76
2022-10-01T22:55:44.977Z,10.79
2022-10-01T22:59:03.211Z,10.75
2022-10-01T23:01:48.971Z,10.72
2022-10-01T23:04:55.842Z,10.72
2022-10-01T23:07:46.673Z,10.75
2022-10-01T23:10:49.793Z,10.74
2022-10-01T23:14:01.880Z,10.77
2022-10-01T23:17:06.300Z,10.77
2022-10-01T23:19:57.769Z,10.82
2022-10-01T23:22:42.419Z,10.79
2022-10-01T23:25:56.549Z,10.81
2022-10-01T23:29:01.136Z,10.79
2022-10-01T23:31:46.030Z,10.79
2022-10-01T23:34:59.110Z,10.80
2022-10-01T23:38:13.888Z,10.83
2022-10-01T23:40:51.667Z,10.82
2022-10-01T23:43:35.779Z,10.82
2022-10-01T23:46:17.578Z,10.85
2022-10-01T23:48:59.737Z,10.88
2022-10-01T23:51:46.611Z,10.91
2022-10-01T23:54:56.550Z,10.97
2022-10-01T23:57:38.355Z,11.00
